ESMX

Växjö Kronoberg Airport

Växjö, Sweden
TAF ESMX 261130Z 2612/2621 25013KT 9999 BKN040 TEMPO 2613/2618 SHRA BKN040CB
Issued Valid From Valid To
Apr-26 @ 11:30 UTC
(2 hours ago)
Apr-26 @ 12:00 UTC
(2 hours ago)
Apr-26 @ 21:00 UTC
(in 7 hours)
Apr-26 @ 12:00 to Apr-26 @ 21:00
TAF ESMX 261130Z 2612/2621 25013KT 9999 BKN040
Wind Visibility Clouds
250° at 13 knots 10,000+ meters
  • Broken at 4,000' AGL
Temporary Apr-26 @ 13:00 to Apr-26 @ 18:00
TEMPO 2613/2618 SHRA BKN040CB
Clouds Conditions
  • Broken at 4,000' AGL
  • Rain
TAF ESMX 261130Z 2612/2621 25013KT 9999 BKN040 TEMPO 2613/2618 SHRA BKN040CB
Issued Apr-26 @ 11:30 UTC
(2 hours ago)
Valid From Apr-26 @ 12:00 UTC
(2 hours ago)
Valid To Apr-26 @ 21:00 UTC
(in 7 hours)
Apr-26 @ 12:00 - Apr-26 @ 21:00
Wind Visibility
250° at 13 knots 10,000+ meters
Clouds
  • Broken at 4,000' AGL
Temporary Apr-26 @ 13:00 - Apr-26 @ 18:00
Clouds
  • Broken at 4,000' AGL
Conditions
  • Rain